Time;durP1;ratioP1;P1;durP2;ratioP2;P2;SDS_P1;SDS_P2;PMS_P1;PMS_P2;Temp;Humidity;BMP_temperature;BMP_pressure;BME280_temperature;BME280_humidity;BME280_pressure;Samples;Min_cycle;Max_cycle;Signal;HPM_P1;HPM_P2
2022/01/29 00:01:52;;;;;;;15.98;3.47;;;7.50;99.90;;;;;;4937918;29;20035;-75
2022/01/29 00:04:19;;;;;;;13.40;4.13;;;7.40;99.90;;;;;;4938190;29;20031;-76
2022/01/29 00:06:45;;;;;;;4.65;3.03;;;7.40;99.90;;;;;;4937076;29;20028;-75
2022/01/29 00:09:14;;;;;;;8.38;3.47;;;7.30;99.90;;;;;;4937767;29;20024;-76
2022/01/29 00:11:44;;;;;;;5.07;2.83;;;7.20;99.90;;;;;;4938122;29;20028;-76
2022/01/29 00:14:10;;;;;;;10.68;3.92;;;7.10;99.90;;;;;;4938624;29;20031;-76
2022/01/29 00:16:37;;;;;;;6.32;2.95;;;7.00;99.90;;;;;;4928943;29;20465;-76
2022/01/29 00:19:03;;;;;;;9.90;2.00;;;6.90;99.90;;;;;;4937594;29;20020;-76
2022/01/29 00:21:28;;;;;;;7.15;2.20;;;6.90;99.90;;;;;;4936783;29;20028;-76
2022/01/29 00:23:54;;;;;;;3.05;1.67;;;6.90;99.90;;;;;;4937446;29;20102;-76
2022/01/29 00:26:22;;;;;;;5.68;1.60;;;7.00;99.90;;;;;;4936517;29;20038;-76
2022/01/29 00:28:51;;;;;;;1.50;1.40;;;7.10;99.90;;;;;;4909697;29;20445;-76
2022/01/29 00:31:16;;;;;;;2.15;1.25;;;7.30;99.90;;;;;;4909625;29;20421;-76
2022/01/29 00:33:42;;;;;;;1.73;1.27;;;7.40;99.90;;;;;;4918031;29;20032;-76
2022/01/29 00:36:08;;;;;;;1.70;1.33;;;7.50;99.90;;;;;;4918381;29;20043;-76
2022/01/29 00:38:35;;;;;;;1.42;1.10;;;7.60;99.90;;;;;;4918332;29;20587;-76
2022/01/29 00:41:01;;;;;;;1.60;1.20;;;7.60;99.60;;;;;;4918136;29;20392;-76
2022/01/29 00:43:27;;;;;;;1.30;1.10;;;7.60;99.80;;;;;;4917892;29;20020;-76
2022/01/29 00:45:53;;;;;;;1.13;1.10;;;7.70;99.40;;;;;;4900898;29;20041;-76
2022/01/29 00:48:19;;;;;;;1.60;1.27;;;7.80;99.00;;;;;;4930520;29;20028;-76
2022/01/29 00:50:45;;;;;;;3.65;1.48;;;7.80;98.80;;;;;;4923333;29;20437;-76
2022/01/29 00:53:10;;;;;;;1.40;1.15;;;7.90;98.80;;;;;;4937045;29;20091;-76
2022/01/29 00:55:36;;;;;;;3.22;1.10;;;8.00;98.60;;;;;;4936608;29;20354;-76
2022/01/29 00:58:02;;;;;;;1.50;1.17;;;8.00;98.20;;;;;;4920166;29;20030;-76
2022/01/29 01:00:28;;;;;;;1.20;1.10;;;8.10;98.20;;;;;;4937041;29;20043;-76
2022/01/29 01:02:53;;;;;;;1.75;1.20;;;8.10;98.10;;;;;;4937088;29;20034;-76
2022/01/29 01:05:19;;;;;;;2.67;1.13;;;8.10;97.90;;;;;;4936965;29;20024;-76
2022/01/29 01:07:45;;;;;;;1.98;1.00;;;8.20;97.80;;;;;;4913337;29;20043;-77
2022/01/29 01:10:12;;;;;;;2.40;1.20;;;8.20;97.70;;;;;;4906243;29;20032;-76
2022/01/29 01:12:38;;;;;;;5.28;1.10;;;8.20;97.80;;;;;;4917351;29;20034;-76
2022/01/29 01:15:05;;;;;;;1.17;1.05;;;8.20;97.40;;;;;;4917678;29;20032;-76
2022/01/29 01:17:31;;;;;;;1.90;1.10;;;8.20;97.60;;;;;;4917160;29;20099;-76
2022/01/29 01:19:57;;;;;;;1.10;1.00;;;8.20;97.80;;;;;;4917634;29;20060;-75
2022/01/29 01:22:22;;;;;;;1.20;1.02;;;8.10;97.50;;;;;;4917661;29;20032;-76
2022/01/29 01:24:48;;;;;;;2.67;1.00;;;8.10;97.70;;;;;;4900261;29;20072;-76
2022/01/29 01:27:15;;;;;;;2.00;1.40;;;8.00;97.50;;;;;;4917672;29;20094;-76
2022/01/29 01:29:41;;;;;;;1.30;1.20;;;8.00;98.30;;;;;;4917866;29;20259;-76
2022/01/29 01:32:11;;;;;;;2.40;1.38;;;7.90;98.30;;;;;;4900778;29;20028;-75
2022/01/29 01:34:42;;;;;;;2.92;1.30;;;7.80;98.60;;;;;;4917859;29;20028;-76
2022/01/29 01:37:12;;;;;;;1.83;1.20;;;7.70;98.90;;;;;;4900286;29;20024;-75
2022/01/29 01:39:40;;;;;;;1.95;1.35;;;7.60;98.60;;;;;;4917289;29;20016;-76
2022/01/29 01:42:07;;;;;;;3.15;1.50;;;7.50;98.30;;;;;;4916908;29;20032;-75
2022/01/29 01:44:35;;;;;;;1.92;1.35;;;7.60;98.50;;;;;;4900155;29;20421;-76
2022/01/29 01:47:01;;;;;;;1.27;1.17;;;7.60;98.00;;;;;;4917145;29;20032;-76
2022/01/29 01:49:26;;;;;;;1.20;1.10;;;7.60;98.20;;;;;;4916661;29;20035;-76
2022/01/29 01:51:53;;;;;;;2.45;1.23;;;7.60;98.30;;;;;;4916836;29;20497;-76
2022/01/29 01:54:20;;;;;;;1.20;1.10;;;7.60;97.80;;;;;;4916362;29;20028;-75
2022/01/29 01:56:46;;;;;;;4.95;1.67;;;7.60;98.00;;;;;;4916223;29;20485;-76
2022/01/29 01:59:11;;;;;;;1.30;1.20;;;7.60;97.90;;;;;;4916453;29;20060;-76
2022/01/29 02:01:37;;;;;;;1.33;1.23;;;7.60;98.30;;;;;;4916544;29;20084;-76
2022/01/29 02:04:03;;;;;;;2.35;1.50;;;7.50;98.60;;;;;;4917351;29;20033;-76
2022/01/29 02:06:29;;;;;;;2.95;1.23;;;7.40;99.00;;;;;;4916624;29;20042;-76
2022/01/29 02:08:58;;;;;;;3.10;1.35;;;7.30;99.00;;;;;;4916531;29;20116;-76
2022/01/29 02:11:24;;;;;;;2.00;1.38;;;7.20;99.00;;;;;;4916640;29;20481;-76
2022/01/29 02:13:49;;;;;;;1.50;1.40;;;7.00;99.30;;;;;;4899596;29;20025;-75
2022/01/29 02:16:15;;;;;;;1.40;1.30;;;6.90;99.40;;;;;;4922330;29;20040;-76
2022/01/29 02:18:41;;;;;;;2.72;1.52;;;6.80;99.40;;;;;;4935620;29;20114;-76
2022/01/29 02:21:06;;;;;;;3.53;1.88;;;6.80;99.50;;;;;;4918627;29;20087;-76
2022/01/29 02:23:33;;;;;;;3.35;1.75;;;6.80;99.70;;;;;;4935781;29;20032;-76
2022/01/29 02:25:59;;;;;;;8.95;3.60;;;6.70;99.80;;;;;;4935782;29;20023;-75
2022/01/29 02:28:25;;;;;;;5.93;2.33;;;6.70;99.80;;;;;;4920630;29;20024;-76
2022/01/29 02:30:57;;;;;;;3.45;1.80;;;6.70;99.90;;;;;;4935167;29;20024;-76
2022/01/29 02:33:23;;;;;;;4.75;3.35;;;6.70;99.40;;;;;;4918210;29;20488;-75
2022/01/29 02:35:51;;;;;;;2.00;1.45;;;6.70;99.50;;;;;;4935412;29;20047;-76
2022/01/29 02:38:20;;;;;;;2.08;1.50;;;6.70;99.10;;;;;;4935752;29;20034;-76
2022/01/29 02:40:51;;;;;;;7.38;2.63;;;6.70;99.30;;;;;;4935503;29;20101;-76
2022/01/29 02:43:30;;;;;;;10.50;5.60;;;6.70;99.50;;;;;;4935554;29;20468;-75
2022/01/29 02:45:56;;;;;;;7.20;4.32;;;6.70;99.90;;;;;;4935404;29;20028;-76
2022/01/29 02:48:23;;;;;;;8.35;3.70;;;6.70;99.20;;;;;;4935941;29;20051;-76
2022/01/29 02:50:49;;;;;;;7.13;3.72;;;6.80;99.30;;;;;;4918793;29;20032;-75
2022/01/29 02:53:15;;;;;;;12.15;4.82;;;6.80;99.60;;;;;;4935611;29;20023;-75
2022/01/29 02:55:41;;;;;;;5.20;3.10;;;6.80;99.70;;;;;;4918013;29;20042;-76
2022/01/29 02:58:07;;;;;;;7.28;3.75;;;6.80;99.90;;;;;;4937067;29;20044;-76
2022/01/29 03:00:34;;;;;;;13.27;6.78;;;6.80;99.90;;;;;;4935486;29;20032;-76
2022/01/29 03:03:00;;;;;;;16.15;7.03;;;6.70;99.90;;;;;;4935487;29;20123;-76
2022/01/29 03:05:26;;;;;;;9.73;4.93;;;6.70;99.90;;;;;;4935560;29;20536;-76
2022/01/29 03:07:52;;;;;;;9.82;5.78;;;6.70;99.90;;;;;;4935309;29;20031;-77
2022/01/29 03:10:18;;;;;;;14.27;5.80;;;6.60;99.90;;;;;;4919323;29;20110;-76
2022/01/29 03:12:43;;;;;;;13.20;6.47;;;6.60;99.90;;;;;;4938155;29;20023;-76
2022/01/29 03:15:11;;;;;;;20.25;7.28;;;6.60;99.90;;;;;;4937851;29;20031;-76
2022/01/29 03:17:37;;;;;;;13.95;7.20;;;6.60;99.90;;;;;;4938660;29;20044;-76
2022/01/29 03:20:04;;;;;;;11.50;7.10;;;6.50;99.90;;;;;;4937177;29;20031;-76
2022/01/29 03:22:29;;;;;;;15.18;7.93;;;6.50;99.90;;;;;;4937108;29;20035;-76
2022/01/29 03:24:55;;;;;;;16.15;7.53;;;6.50;99.90;;;;;;4937796;29;20028;-76
2022/01/29 03:27:21;;;;;;;15.75;7.53;;;6.40;99.90;;;;;;4941995;29;20032;-76
2022/01/29 03:29:47;;;;;;;15.32;8.75;;;6.40;99.90;;;;;;4938958;29;20027;-76
2022/01/29 03:32:12;;;;;;;16.85;9.10;;;6.30;99.90;;;;;;4938200;29;20027;-76
2022/01/29 03:34:38;;;;;;;11.52;7.32;;;6.30;99.90;;;;;;4938980;29;20028;-76
2022/01/29 03:37:04;;;;;;;11.98;6.53;;;6.30;99.90;;;;;;4938340;29;20385;-76
2022/01/29 03:39:30;;;;;;;19.50;6.70;;;6.30;99.90;;;;;;4938026;29;20030;-76
2022/01/29 03:42:02;;;;;;;16.65;6.72;;;6.20;99.90;;;;;;4939060;29;20551;-76
2022/01/29 03:44:28;;;;;;;;;;;6.30;99.90;;;;;;4925354;29;20037;-76
2022/01/29 03:46:53;;;;;;;13.65;6.90;;;6.20;99.90;;;;;;4941361;29;19906;-76
2022/01/29 03:49:19;;;;;;;16.33;7.07;;;6.20;99.90;;;;;;4942295;29;20023;-76
2022/01/29 03:51:45;;;;;;;16.50;7.10;;;6.10;99.90;;;;;;4942180;29;20469;-76
2022/01/29 03:54:10;;;;;;;14.02;6.95;;;6.10;99.90;;;;;;4941034;29;20107;-76
2022/01/29 03:56:36;;;;;;;10.73;6.53;;;6.10;99.90;;;;;;4941739;29;20031;-75
2022/01/29 03:59:02;;;;;;;10.80;6.15;;;6.00;99.90;;;;;;4941093;29;20051;-76
2022/01/29 04:01:28;;;;;;;17.35;6.90;;;5.80;99.90;;;;;;4941304;29;20036;-76
2022/01/29 04:03:54;;;;;;;14.05;6.88;;;5.70;99.90;;;;;;4925081;29;20028;-76
2022/01/29 04:06:20;;;;;;;11.32;6.13;;;5.70;99.90;;;;;;4939379;29;20047;-76
2022/01/29 04:08:45;;;;;;;12.45;6.35;;;5.60;99.90;;;;;;4938585;29;20066;-76
2022/01/29 04:11:13;;;;;;;11.50;6.70;;;5.50;99.90;;;;;;4930185;29;20460;-76
2022/01/29 04:13:44;;;;;;;14.38;7.68;;;5.50;99.90;;;;;;4925271;29;20374;-76
2022/01/29 04:16:11;;;;;;;12.27;6.63;;;5.50;99.90;;;;;;4915100;29;20071;-77
2022/01/29 04:18:37;;;;;;;14.68;5.03;;;5.50;99.90;;;;;;4901592;29;20362;-76
2022/01/29 04:21:04;;;;;;;15.18;5.40;;;5.40;99.90;;;;;;4901529;29;20043;-76
2022/01/29 04:23:30;;;;;;;5.63;4.25;;;5.40;99.90;;;;;;4919422;29;20020;-76
2022/01/29 04:25:56;;;;;;;6.18;4.10;;;5.50;99.90;;;;;;4918860;29;20024;-76
2022/01/29 04:28:25;;;;;;;8.90;4.75;;;5.50;99.90;;;;;;4901801;29;20035;-76
2022/01/29 04:30:57;;;;;;;6.38;3.83;;;5.50;99.90;;;;;;4918387;29;20067;-77
2022/01/29 04:35:49;;;;;;;12.50;5.35;;;5.50;99.90;;;;;;4918168;29;20426;-77
2022/01/29 04:38:15;;;;;;;9.23;4.50;;;5.50;99.90;;;;;;4917503;29;20035;-74
2022/01/29 04:40:42;;;;;;;9.82;5.13;;;5.50;99.90;;;;;;4917706;29;20055;-74
2022/01/29 04:43:08;;;;;;;11.68;5.22;;;5.50;99.90;;;;;;4901501;29;20032;-76
2022/01/29 04:45:34;;;;;;;17.00;5.50;;;5.60;99.90;;;;;;4918208;29;20092;-76
2022/01/29 04:48:00;;;;;;;11.30;5.40;;;5.60;99.90;;;;;;4918186;29;20024;-76
2022/01/29 04:50:26;;;;;;;8.00;4.63;;;5.60;99.90;;;;;;4918744;29;20107;-76
2022/01/29 04:52:51;;;;;;;8.32;4.93;;;5.60;99.90;;;;;;4918249;29;20103;-76
2022/01/29 04:55:17;;;;;;;8.20;4.60;;;5.60;99.90;;;;;;4917450;29;20095;-76
2022/01/29 04:57:43;;;;;;;7.32;3.85;;;5.60;99.90;;;;;;4916815;29;20036;-76
2022/01/29 05:00:12;;;;;;;9.60;3.65;;;5.40;99.90;;;;;;4918003;29;20068;-76
2022/01/29 05:02:38;;;;;;;7.03;3.72;;;5.40;99.90;;;;;;4918184;29;20056;-76
2022/01/29 05:05:05;;;;;;;3.92;2.88;;;5.20;99.90;;;;;;4918253;29;20084;-76
2022/01/29 05:07:31;;;;;;;8.13;4.30;;;5.10;99.90;;;;;;4917596;29;20068;-76
2022/01/29 05:09:57;;;;;;;7.53;3.35;;;5.00;99.90;;;;;;4900788;29;20071;-76
2022/01/29 05:12:28;;;;;;;9.98;3.25;;;4.90;99.90;;;;;;4918193;29;20031;-76
2022/01/29 05:28:03;;;;;;;3.88;2.60;;;4.50;99.90;;;;;;4936563;29;20038;-76
2022/01/29 05:30:29;;;;;;;11.35;3.63;;;4.50;99.90;;;;;;4936609;29;20110;-76
2022/01/29 05:32:55;;;;;;;4.00;2.85;;;4.50;99.90;;;;;;4936287;29;20062;-76
2022/01/29 05:35:21;;;;;;;5.30;3.00;;;4.50;99.90;;;;;;4936320;29;20035;-76
2022/01/29 05:37:49;;;;;;;7.63;3.55;;;4.50;99.90;;;;;;4935588;29;20075;-76
2022/01/29 05:40:16;;;;;;;6.88;2.95;;;4.50;99.90;;;;;;4936255;29;20031;-75
2022/01/29 05:42:41;;;;;;;6.47;3.33;;;4.40;99.90;;;;;;4935930;29;20043;-76
2022/01/29 05:45:07;;;;;;;5.50;2.75;;;4.40;99.90;;;;;;4936025;29;20393;-76
2022/01/29 05:47:35;;;;;;;3.53;2.70;;;4.40;99.90;;;;;;4935764;29;20031;-76
2022/01/29 05:50:01;;;;;;;6.43;3.08;;;4.40;99.90;;;;;;4935753;29;20020;-76
2022/01/29 05:52:27;;;;;;;5.68;2.78;;;4.40;99.90;;;;;;4935371;29;20024;-76
2022/01/29 05:54:52;;;;;;;6.78;2.20;;;4.50;99.90;;;;;;4936163;29;20098;-76
2022/01/29 05:57:19;;;;;;;5.10;2.97;;;4.50;99.90;;;;;;4936052;29;20039;-76
2022/01/29 05:59:44;;;;;;;3.78;2.67;;;4.60;99.90;;;;;;4918335;29;20035;-77
2022/01/29 06:02:10;;;;;;;10.55;3.90;;;4.50;99.90;;;;;;4918402;29;20035;-76
2022/01/29 06:04:36;;;;;;;11.05;3.05;;;4.50;99.90;;;;;;4918244;29;20127;-76
2022/01/29 06:07:01;;;;;;;4.30;2.65;;;4.50;99.90;;;;;;4935805;29;20043;-76
2022/01/29 06:09:27;;;;;;;5.13;2.50;;;4.50;99.90;;;;;;4935978;29;20054;-75
2022/01/29 06:11:53;;;;;;;4.13;2.85;;;4.50;99.90;;;;;;4935349;29;20024;-76
2022/01/29 06:14:18;;;;;;;3.97;2.75;;;4.60;99.90;;;;;;4935529;29;20455;-76
2022/01/29 06:16:44;;;;;;;4.63;3.13;;;4.70;99.90;;;;;;4935313;29;20098;-76
2022/01/29 06:19:10;;;;;;;7.45;2.88;;;4.70;99.90;;;;;;4934225;29;20067;-76
2022/01/29 06:21:36;;;;;;;3.65;2.42;;;4.70;99.90;;;;;;4934968;29;20038;-76
2022/01/29 06:24:02;;;;;;;3.70;2.72;;;4.70;99.90;;;;;;4935266;29;20087;-76
2022/01/29 06:26:28;;;;;;;3.92;3.00;;;4.70;99.90;;;;;;4918231;29;20051;-76
2022/01/29 06:28:54;;;;;;;5.38;2.90;;;4.70;99.90;;;;;;4935098;29;20020;-76
2022/01/29 06:31:19;;;;;;;6.82;3.42;;;4.60;99.90;;;;;;4935151;29;20032;-75
2022/01/29 06:33:45;;;;;;;5.60;2.83;;;4.60;99.90;;;;;;4918429;29;20027;-76
2022/01/29 06:36:11;;;;;;;8.73;3.83;;;4.70;99.90;;;;;;4935489;29;20079;-76
2022/01/29 06:38:37;;;;;;;14.82;5.95;;;4.70;99.90;;;;;;4934904;29;20027;-76
2022/01/29 06:41:03;;;;;;;4.53;3.17;;;4.70;99.90;;;;;;4934876;29;20078;-76
2022/01/29 06:43:29;;;;;;;10.57;4.47;;;4.70;99.90;;;;;;4935158;29;20039;-76
2022/01/29 06:45:55;;;;;;;11.65;5.32;;;4.70;99.90;;;;;;4935162;29;20020;-75
2022/01/29 06:48:21;;;;;;;16.30;9.70;;;4.80;99.90;;;;;;4935160;29;20036;-76
2022/01/29 06:50:47;;;;;;;11.52;4.70;;;4.70;99.90;;;;;;4934924;29;20027;-76
2022/01/29 06:53:12;;;;;;;19.95;10.05;;;4.80;99.90;;;;;;4935110;29;20543;-76
2022/01/29 06:55:38;;;;;;;17.15;9.32;;;4.90;99.90;;;;;;4934907;29;20053;-76
2022/01/29 06:58:04;;;;;;;12.88;5.53;;;4.90;99.90;;;;;;4935304;29;20019;-77
2022/01/29 07:00:30;;;;;;;9.52;5.35;;;5.10;99.90;;;;;;4917238;29;20044;-76
2022/01/29 07:02:56;;;;;;;8.35;4.78;;;5.20;99.90;;;;;;4918274;29;20126;-76
2022/01/29 07:05:22;;;;;;;8.93;4.85;;;5.30;99.90;;;;;;4935258;29;20099;-76
2022/01/29 07:07:47;;;;;;;13.05;6.18;;;5.40;99.90;;;;;;4935188;29;20031;-75
2022/01/29 07:10:13;;;;;;;14.25;6.03;;;5.60;99.90;;;;;;4935390;29;20079;-76
2022/01/29 07:12:40;;;;;;;7.47;5.60;;;6.00;99.90;;;;;;4934594;29;20032;-76
2022/01/29 07:15:07;;;;;;;11.70;6.22;;;6.40;99.90;;;;;;4933870;29;20035;-76
2022/01/29 07:17:33;;;;;;;15.55;6.35;;;6.60;99.90;;;;;;4938260;29;20072;-76
2022/01/29 07:19:59;;;;;;;11.27;5.57;;;7.00;99.90;;;;;;4938806;29;20107;-76
2022/01/29 07:22:25;;;;;;;9.90;4.47;;;7.40;99.90;;;;;;4938763;29;20035;-77
2022/01/29 07:24:51;;;;;;;16.38;6.05;;;7.80;99.90;;;;;;4938609;29;20019;-76
2022/01/29 07:27:17;;;;;;;16.20;5.35;;;8.20;99.90;;;;;;4938356;29;20031;-76
2022/01/29 07:29:43;;;;;;;11.23;4.28;;;8.30;99.90;;;;;;4938504;29;20028;-77
2022/01/29 07:32:10;;;;;;;17.55;5.00;;;8.50;99.90;;;;;;4937943;29;20027;-76
2022/01/29 07:34:35;;;;;;;27.25;5.28;;;8.20;99.90;;;;;;4938693;29;20059;-76
2022/01/29 07:37:01;;;;;;;24.90;5.03;;;8.20;99.90;;;;;;4938644;29;20028;-76
2022/01/29 07:39:27;;;;;;;20.00;5.53;;;8.40;99.90;;;;;;4938120;29;20083;-76
2022/01/29 07:41:54;;;;;;;31.67;7.88;;;8.40;99.90;;;;;;4937808;29;20046;-77
2022/01/29 07:44:20;;;;;;;32.13;10.10;;;8.00;99.90;;;;;;4937923;29;20024;-76
2022/01/29 07:46:46;;;;;;;144.90;87.72;;;7.90;99.90;;;;;;4938353;29;20090;-76
2022/01/29 07:49:12;;;;;;;54.17;27.63;;;8.10;99.90;;;;;;4938203;29;20024;-76
2022/01/29 07:51:39;;;;;;;59.53;36.13;;;8.20;99.90;;;;;;4938228;29;20055;-76
2022/01/29 07:54:06;;;;;;;33.10;16.13;;;8.20;99.90;;;;;;4938403;29;20047;-76
2022/01/29 07:56:32;;;;;;;22.85;17.13;;;8.10;99.90;;;;;;4937993;29;20024;-76
2022/01/29 07:58:57;;;;;;;23.42;14.98;;;7.90;99.90;;;;;;4938227;29;20535;-76
2022/01/29 08:01:23;;;;;;;35.97;23.55;;;7.90;99.90;;;;;;4937905;29;20044;-77
2022/01/29 08:03:50;;;;;;;12.23;6.45;;;7.80;99.90;;;;;;4937428;29;20075;-76
2022/01/29 08:06:22;;;;;;;36.95;6.47;;;7.70;99.90;;;;;;4937847;29;20023;-76
2022/01/29 08:08:48;;;;;;;13.88;6.20;;;7.60;99.90;;;;;;4919203;29;20047;-77
2022/01/29 08:11:15;;;;;;;21.20;8.32;;;7.60;99.90;;;;;;4928054;29;20102;-76
2022/01/29 08:13:40;;;;;;;12.27;5.25;;;7.90;99.90;;;;;;4937689;29;20031;-76
2022/01/29 08:16:06;;;;;;;12.32;5.60;;;8.20;99.90;;;;;;4937317;29;20048;-76
2022/01/29 08:18:32;;;;;;;11.95;5.30;;;8.50;99.90;;;;;;4918779;29;20103;-76
2022/01/29 08:20:58;;;;;;;20.48;5.60;;;8.90;99.90;;;;;;4918701;29;20028;-76
2022/01/29 08:23:24;;;;;;;9.18;5.22;;;9.50;99.90;;;;;;4918322;29;20032;-77
2022/01/29 08:25:50;;;;;;;14.80;5.43;;;10.40;99.90;;;;;;4905070;29;20032;-77
2022/01/29 08:28:16;;;;;;;15.73;4.10;;;11.50;99.90;;;;;;4933291;29;20028;-77
2022/01/29 08:30:43;;;;;;;8.15;3.72;;;12.50;99.90;;;;;;4919562;29;20024;-76
2022/01/29 08:33:11;;;;;;;7.60;4.82;;;13.40;99.20;;;;;;4919114;29;20032;-77
2022/01/29 08:35:37;;;;;;;11.40;4.30;;;14.20;97.80;;;;;;4926509;29;20028;-77
2022/01/29 08:38:03;;;;;;;11.15;4.03;;;14.80;96.00;;;;;;4937582;29;20028;-77
2022/01/29 08:40:28;;;;;;;13.57;5.03;;;15.20;94.60;;;;;;4935859;29;20369;-76
2022/01/29 08:42:54;;;;;;;10.20;3.70;;;15.60;94.10;;;;;;4917277;29;20046;-77
2022/01/29 08:45:20;;;;;;;7.82;4.03;;;15.70;93.40;;;;;;4916795;29;20028;-77
2022/01/29 08:47:46;;;;;;;9.25;3.70;;;16.50;91.90;;;;;;4934427;29;20031;-77
2022/01/29 08:50:13;;;;;;;7.78;2.85;;;17.10;90.90;;;;;;4901145;29;20094;-76
2022/01/29 08:52:40;;;;;;;11.48;3.70;;;17.30;89.00;;;;;;4917709;29;20481;-77
2022/01/29 08:55:07;;;;;;;5.65;3.25;;;17.70;88.10;;;;;;4917623;29;20461;-77
2022/01/29 08:57:33;;;;;;;4.57;2.50;;;18.10;85.70;;;;;;4917413;29;20026;-77
2022/01/29 08:59:59;;;;;;;9.73;5.75;;;18.10;82.40;;;;;;4917452;29;20473;-75
2022/01/29 09:02:25;;;;;;;9.35;8.25;;;17.20;80.90;;;;;;4917544;29;20119;-76
2022/01/29 09:04:52;;;;;;;9.02;4.63;;;16.30;82.10;;;;;;4916995;29;20031;-77
2022/01/29 09:07:17;;;;;;;17.58;4.00;;;15.30;83.70;;;;;;4916396;29;20396;-76
2022/01/29 09:09:45;;;;;;;5.22;2.58;;;14.70;86.30;;;;;;4916694;29;20047;-77
2022/01/29 09:12:12;;;;;;;12.02;2.60;;;14.70;84.80;;;;;;4920850;29;20171;-76
2022/01/29 09:14:38;;;;;;;8.20;2.85;;;14.60;84.80;;;;;;4914039;29;20024;-76
2022/01/29 09:17:04;;;;;;;8.40;3.22;;;14.80;85.10;;;;;;4914706;29;20055;-77
2022/01/29 09:19:30;;;;;;;10.10;3.45;;;15.40;84.40;;;;;;4913636;29;20043;-76
2022/01/29 09:21:55;;;;;;;8.32;3.35;;;16.10;81.80;;;;;;4914067;29;20028;-76
2022/01/29 09:24:21;;;;;;;7.38;2.88;;;16.30;80.20;;;;;;4915791;29;20032;-76
2022/01/29 09:26:47;;;;;;;5.07;2.45;;;16.90;80.80;;;;;;4915571;29;20060;-76
2022/01/29 09:29:13;;;;;;;7.63;2.67;;;17.10;77.30;;;;;;4916778;29;20103;-74
2022/01/29 09:31:38;;;;;;;10.60;2.92;;;16.60;77.70;;;;;;4915037;29;20099;-74
2022/01/29 09:34:04;;;;;;;13.98;2.83;;;16.00;79.50;;;;;;4914652;29;20493;-76
2022/01/29 09:36:30;;;;;;;5.68;3.05;;;16.40;79.40;;;;;;4916897;29;20032;-76
2022/01/29 09:38:56;;;;;;;9.63;3.78;;;17.00;78.60;;;;;;4908294;29;20030;-74
2022/01/29 09:41:25;;;;;;;7.43;4.07;;;17.30;77.40;;;;;;4925962;29;20040;-77
2022/01/29 09:43:53;;;;;;;8.45;3.92;;;17.40;77.40;;;;;;4916605;29;20108;-75
2022/01/29 09:46:19;;;;;;;10.80;4.65;;;17.20;77.70;;;;;;4916964;29;20043;-75
2022/01/29 09:48:46;;;;;;;9.48;5.00;;;16.70;77.60;;;;;;4899617;29;20429;-75
2022/01/29 09:51:13;;;;;;;10.18;4.72;;;16.10;78.90;;;;;;4916362;29;20485;-75
2022/01/29 09:53:45;;;;;;;9.27;4.82;;;15.80;79.60;;;;;;4916548;29;20035;-74
2022/01/29 09:56:13;;;;;;;9.70;5.00;;;15.80;80.00;;;;;;4912521;29;20557;-74
2022/01/29 09:58:40;;;;;;;19.30;5.82;;;15.80;79.90;;;;;;4916544;29;20088;-75
2022/01/29 10:01:05;;;;;;;23.20;6.45;;;15.60;80.00;;;;;;4899231;29;20028;-76
2022/01/29 10:03:31;;;;;;;15.30;5.93;;;15.40;80.70;;;;;;4916290;29;20112;-73
2022/01/29 10:05:58;;;;;;;12.20;5.72;;;15.10;81.10;;;;;;4916117;29;20055;-75
2022/01/29 10:08:24;;;;;;;15.23;6.10;;;14.90;81.90;;;;;;4913709;29;20024;-73
2022/01/29 10:10:52;;;;;;;17.98;7.00;;;14.70;83.00;;;;;;4916300;29;20023;-73
2022/01/29 10:13:35;;;;;;;20.85;9.02;;;14.50;83.90;;;;;;4916145;29;20028;-73
2022/01/29 10:16:21;;;;;;;19.63;8.38;;;14.30;85.30;;;;;;4919336;29;20123;-74
2022/01/29 10:18:59;;;;;;;23.08;8.75;;;14.00;86.10;;;;;;4935088;29;20464;-73
2022/01/29 10:21:30;;;;;;;22.42;9.05;;;13.80;86.40;;;;;;4917233;29;20126;-73
2022/01/29 10:24:07;;;;;;;27.77;9.93;;;13.70;87.10;;;;;;4935175;29;20020;-75
2022/01/29 10:26:39;;;;;;;25.70;9.35;;;13.50;87.80;;;;;;4935137;29;20030;-74
2022/01/29 10:29:07;;;;;;;18.85;8.65;;;13.50;88.30;;;;;;4935189;29;20467;-75
2022/01/29 10:31:42;;;;;;;23.17;9.40;;;13.30;88.60;;;;;;4934914;29;20027;-74
2022/01/29 10:34:33;;;;;;;30.75;10.23;;;13.30;89.60;;;;;;4935253;29;20079;-75
2022/01/29 10:37:20;;;;;;;34.03;11.55;;;13.20;90.10;;;;;;4935010;29;20102;-74
2022/01/29 10:39:53;;;;;;;21.10;11.20;;;13.30;90.20;;;;;;4934059;29;20020;-75
2022/01/29 10:42:27;;;;;;;33.85;11.82;;;13.90;90.20;;;;;;4934513;29;20171;-73
2022/01/29 10:45:03;;;;;;;29.95;9.85;;;14.60;88.60;;;;;;4934650;29;20082;-75
2022/01/29 10:47:30;;;;;;;40.03;9.57;;;15.20;88.00;;;;;;4932376;29;20020;-76
2022/01/29 10:50:03;;;;;;;22.10;8.93;;;15.80;86.30;;;;;;4934366;29;20499;-74
2022/01/29 10:52:34;;;;;;;19.27;9.40;;;16.10;85.00;;;;;;4934318;29;20055;-74
2022/01/29 10:55:07;;;;;;;16.90;8.80;;;16.40;83.90;;;;;;4933874;29;20028;-73
2022/01/29 10:57:39;;;;;;;23.02;8.70;;;16.60;82.10;;;;;;4934507;29;20035;-76
2022/01/29 11:00:23;;;;;;;19.90;9.57;;;16.80;80.10;;;;;;4918273;29;20042;-75
2022/01/29 11:02:51;;;;;;;17.92;9.73;;;17.00;79.80;;;;;;4932567;29;20035;-73
2022/01/29 11:05:17;;;;;;;13.65;7.25;;;17.30;79.60;;;;;;4934709;29;20024;-74
2022/01/29 11:07:51;;;;;;;17.45;7.97;;;17.30;78.30;;;;;;4933839;29;20032;-74
2022/01/29 11:10:19;;;;;;;20.33;8.75;;;17.70;77.90;;;;;;4916532;29;20023;-74
2022/01/29 11:12:46;;;;;;;16.70;7.32;;;17.40;77.30;;;;;;4933529;29;20059;-73
2022/01/29 11:15:15;;;;;;;17.02;7.30;;;17.10;77.80;;;;;;4933259;29;20035;-73
2022/01/29 11:17:42;;;;;;;18.73;7.88;;;16.90;78.10;;;;;;4932415;29;20079;-74
2022/01/29 11:20:10;;;;;;;22.38;9.50;;;16.70;78.70;;;;;;4933795;29;20024;-71
2022/01/29 11:22:39;;;;;;;27.25;8.65;;;16.40;79.40;;;;;;4933901;29;20111;-72
2022/01/29 11:25:19;;;;;;;23.67;8.93;;;16.10;79.80;;;;;;4932296;29;20314;-72
2022/01/29 11:27:45;;;;;;;18.40;8.85;;;15.90;81.10;;;;;;4934247;29;20436;-74
2022/01/29 11:30:13;;;;;;;20.90;9.25;;;15.60;81.20;;;;;;4933669;29;20365;-73
2022/01/29 11:32:47;;;;;;;18.40;8.73;;;15.50;81.70;;;;;;4933249;29;20170;-73
2022/01/29 11:35:24;;;;;;;23.55;10.75;;;15.30;82.00;;;;;;4933639;29;20012;-73
2022/01/29 11:38:03;;;;;;;20.15;9.80;;;14.90;82.50;;;;;;4932472;29;20504;-74
2022/01/29 11:40:39;;;;;;;25.52;8.55;;;14.90;83.80;;;;;;4934656;29;20067;-73
2022/01/29 11:43:13;;;;;;;21.02;10.45;;;14.80;83.70;;;;;;4933462;29;20034;-74
2022/01/29 11:45:57;;;;;;;19.17;9.75;;;14.90;84.10;;;;;;4933145;29;20118;-74
2022/01/29 11:48:34;;;;;;;25.35;11.20;;;15.00;84.20;;;;;;4933402;29;20023;-74
2022/01/29 11:51:08;;;;;;;32.25;12.65;;;15.30;83.90;;;;;;4932791;29;20032;-74
2022/01/29 11:53:46;;;;;;;37.33;12.15;;;15.50;83.80;;;;;;4933624;29;20043;-75
2022/01/29 11:56:31;;;;;;;25.48;11.38;;;15.40;83.00;;;;;;4931564;29;20019;-74
2022/01/29 11:59:19;;;;;;;19.75;9.88;;;15.20;83.10;;;;;;4916065;29;20050;-74
2022/01/29 12:01:46;;;;;;;24.02;10.55;;;15.10;84.00;;;;;;4933297;29;20032;-74
2022/01/29 12:04:12;;;;;;;18.50;9.32;;;14.90;84.10;;;;;;4935698;29;20020;-74
2022/01/29 12:07:46;;;;;;;22.63;10.00;;;14.70;84.30;;;;;;4937231;29;20111;-74
2022/01/29 12:10:04;;;;;;;23.27;10.10;;;14.80;84.80;;;;;;4921305;29;20535;-73
2022/01/29 12:12:32;;;;;;;29.17;10.10;;;14.70;84.50;;;;;;4935869;29;20427;-74
2022/01/29 12:15:18;;;;;;;20.08;8.68;;;14.60;85.10;;;;;;4936790;29;20110;-74
2022/01/29 12:17:48;;;;;;;20.35;9.07;;;14.50;85.00;;;;;;4936175;29;20063;-75
2022/01/29 12:20:19;;;;;;;22.77;9.73;;;14.50;85.10;;;;;;4936066;29;20020;-78
2022/01/29 12:22:45;;;;;;;24.70;10.77;;;14.20;86.30;;;;;;4935838;29;20051;-76
2022/01/29 12:25:13;;;;;;;27.98;11.48;;;14.10;86.70;;;;;;4934002;29;20035;-73
2022/01/29 12:27:41;;;;;;;28.88;11.73;;;14.10;87.40;;;;;;4935118;29;20031;-73
2022/01/29 12:30:08;;;;;;;25.98;10.32;;;13.90;88.50;;;;;;4936044;29;20023;-75
2022/01/29 12:32:34;;;;;;;22.48;10.15;;;13.70;88.10;;;;;;4936499;29;20038;-73
2022/01/29 12:35:03;;;;;;;25.17;10.57;;;13.50;88.60;;;;;;4922293;29;20020;-74
2022/01/29 12:37:29;;;;;;;29.50;11.73;;;13.40;88.40;;;;;;4914956;29;20053;-72
2022/01/29 12:40:35;;;;;;;29.52;10.43;;;13.20;88.90;;;;;;4925589;29;20028;-73
2022/01/29 12:43:09;;;;;;;32.25;12.90;;;13.20;89.60;;;;;;4934442;29;20556;-73
2022/01/29 12:45:35;;;;;;;28.05;12.30;;;13.10;89.80;;;;;;4932583;29;20388;-74
2022/01/29 12:48:11;;;;;;;30.80;14.25;;;13.00;89.80;;;;;;4910523;29;20036;-74
2022/01/29 12:50:39;;;;;;;29.95;12.90;;;13.00;90.20;;;;;;4936686;29;20020;-75
2022/01/29 12:53:10;;;;;;;35.30;14.38;;;13.00;90.60;;;;;;4926789;29;20038;-75
2022/01/29 12:55:36;;;;;;;31.50;12.85;;;12.90;90.20;;;;;;4932721;29;20035;-75
2022/01/29 12:58:03;;;;;;;31.13;13.40;;;12.80;90.20;;;;;;4934973;29;20047;-76
2022/01/29 13:00:29;;;;;;;31.35;13.23;;;12.70;90.40;;;;;;4935798;29;20023;-76
2022/01/29 13:03:09;;;;;;;37.92;14.18;;;12.70;90.70;;;;;;4936178;29;20055;-76
2022/01/29 13:05:43;;;;;;;35.55;13.63;;;12.70;90.80;;;;;;4933146;29;20016;-76